Thunder radar more information blitzortung!


Radar de pluja more information rain snow radar


Visita la nostra xarxa de llocs de meteo:

Template documentation
and downloads

And another site



Wind From: 11-12-2017 11:00 Until: 14:59 warning for: Wind Level: Yellow info button

Pagina Historial Weather Underground text

Diari Resum Agost 11, 2017 Unitats:  Mètric    Imperial   Tant
« Previous Dia
SegĂźent Dia »
Diari Setmana Mensual Anual Personalitzada
  Maxima: Minima: Media:
Temperatura: 27.5 °C 15.3 °C 22 °C
Punt de rosada: 13.9 °C 5.6 °C 11.5 °C
Humitat: 76 % 32 % 53 %
Wind Speed: 24.1 km/h 0.0 km/h 7.1 km/h
RĂ fegues de vent: 24.1 km/h - -
Vent:- - ESE
Pression baro: 1021.9 hPa 1017.8 hPa -
Precipitacions: 0.0 mm    
Historical Graphs
 
 
Dades de taula per Agost 11, 2017
Temps Temperatura Punt de rosada Pression baro Vent Wind Speed RĂ fegues de vent Humitat Rainfall Rate (Hourly)
00:00 21.4 °C 10.6 °C 1018.8 hPa WSW 2.3 km/h 2.3 km/h 50 % 0.0 mm
00:05 21.4 °C 10.2 °C 1018.8 hPa WSW 5.6 km/h 5.6 km/h 49 % 0.0 mm
00:10 21.4 °C 10.2 °C 1018.8 hPa NW 5.6 km/h 5.6 km/h 49 % 0.0 mm
00:15 21.3 °C 9.8 °C 1018.8 hPa North 3.7 km/h 3.7 km/h 48 % 0.0 mm
00:20 21.3 °C 9.8 °C 1018.8 hPa ENE 3.7 km/h 3.7 km/h 48 % 0.0 mm
00:25 21.2 °C 9.4 °C 1018.8 hPa NNE 5.0 km/h 5.0 km/h 47 % 0.0 mm
00:30 21.2 °C 9.4 °C 1018.8 hPa East 3.7 km/h 3.7 km/h 47 % 0.0 mm
00:35 21.1 °C 9.3 °C 1018.8 hPa ENE 3.7 km/h 3.7 km/h 47 % 0.0 mm
00:40 20.9 °C 9.5 °C 1018.8 hPa ENE 2.6 km/h 2.6 km/h 48 % 0.0 mm
00:45 20.8 °C 9.4 °C 1018.8 hPa East 1.9 km/h   48 % 0.0 mm
00:50 20.7 °C 9.3 °C 1018.8 hPa West 3.7 km/h 3.7 km/h 48 % 0.0 mm
00:55 20.6 °C 9.2 °C 1018.8 hPa West 1.9 km/h   48 % 0.0 mm
01:00 20.5 °C 9.1 °C 1018.8 hPa West 5.6 km/h 5.6 km/h 48 % 0.0 mm
01:05 20.4 °C 9.0 °C 1018.8 hPa West 9.3 km/h 9.3 km/h 48 % 0.0 mm
01:10 20.3 °C 8.6 °C 1018.8 hPa WSW 7.4 km/h 7.4 km/h 47 % 0.0 mm
01:15 20.2 °C 8.5 °C 1018.8 hPa NE 3.7 km/h 3.7 km/h 47 % 0.0 mm
01:20 20.1 °C 8.4 °C 1018.8 hPa NNE 2.3 km/h   47 % 0.0 mm
01:25 20.0 °C 8.3 °C 1018.8 hPa Calm     47 % 0.0 mm
01:30 19.8 °C 8.4 °C 1018.8 hPa WSW 5.6 km/h 5.6 km/h 48 % 0.0 mm
01:40 15.4 °C 5.6 °C 1018.8 hPa West 3.2 km/h 4.8 km/h 52 % 0.0 mm
01:50 15.3 °C 5.8 °C 1018.8 hPa WNW 1.6 km/h 6.4 km/h 53 % 0.0 mm
02:00 15.3 °C 5.8 °C 1018.8 hPa West 1.6 km/h 4.8 km/h 53 % 0.0 mm
02:10 15.3 °C 6.1 °C 1018.8 hPa NNE 1.6 km/h 6.4 km/h 54 % 0.0 mm
02:20 15.3 °C 6.1 °C 1019.9 hPa NE 1.6 km/h 3.2 km/h 54 % 0.0 mm
02:30 15.4 °C 6.1 °C 1019.9 hPa NNW 1.6 km/h 4.8 km/h 54 % 0.0 mm
02:40 15.8 °C 6.5 °C 1019.9 hPa WNW 1.6 km/h 3.2 km/h 54 % 0.0 mm
02:50 15.6 °C 6.6 °C 1019.9 hPa WSW 1.6 km/h 4.8 km/h 55 % 0.0 mm
03:10 16.0 °C 6.9 °C 1019.9 hPa West 1.6 km/h 3.2 km/h 55 % 0.0 mm
03:20 16.8 °C 7.7 °C 1018.8 hPa North 4.8 km/h 8.0 km/h 55 % 0.0 mm
03:30 17.3 °C 7.9 °C 1018.8 hPa North 3.2 km/h 4.8 km/h 54 % 0.0 mm
03:40 17.0 °C 7.3 °C 1019.9 hPa NE 1.6 km/h 6.4 km/h 53 % 0.0 mm
03:50 17.2 °C 7.6 °C 1019.9 hPa NE 4.8 km/h 8.0 km/h 53 % 0.0 mm
04:00 17.7 °C 8.0 °C 1019.9 hPa NE 1.6 km/h 6.4 km/h 53 % 0.0 mm
04:10 18.1 °C 8.4 °C 1019.9 hPa NE 1.6 km/h 6.4 km/h 53 % 0.0 mm
04:20 18.5 °C 8.7 °C 1019.9 hPa NE 1.6 km/h 4.8 km/h 53 % 0.0 mm
04:30 18.6 °C 8.6 °C 1019.9 hPa ENE 4.8 km/h 6.4 km/h 52 % 0.0 mm
04:40 18.8 °C 8.7 °C 1019.9 hPa NE 1.6 km/h 4.8 km/h 52 % 0.0 mm
04:50 19.1 °C 8.7 °C 1019.9 hPa NNE 3.2 km/h 4.8 km/h 51 % 0.0 mm
05:00 19.5 °C 8.8 °C 1019.9 hPa NNE 1.6 km/h 4.8 km/h 50 % 0.0 mm
05:10 19.2 °C 8.5 °C 1019.9 hPa NNE 4.8 km/h 8.0 km/h 50 % 0.0 mm
05:20 19.6 °C 8.9 °C 1018.8 hPa NE 4.8 km/h 6.4 km/h 50 % 0.0 mm
05:30 19.9 °C 9.2 °C 1018.8 hPa ENE 4.8 km/h 6.4 km/h 50 % 0.0 mm
10:34 20.6 °C 9.8 °C 1019.9 hPa ENE 5.6 km/h 5.6 km/h 50 % 0.0 mm
10:35 20.6 °C 9.8 °C 1019.9 hPa ENE 5.6 km/h 5.6 km/h 50 % 0.0 mm
10:40 20.7 °C 9.9 °C 1019.9 hPa SE 3.9 km/h 3.9 km/h 50 % 0.0 mm
10:45 21.1 °C 9.9 °C 1019.9 hPa ENE 7.9 km/h 7.9 km/h 49 % 0.0 mm
10:50 21.2 °C 10.1 °C 1019.9 hPa WNW 4.7 km/h 4.7 km/h 49 % 0.0 mm
10:55 21.5 °C 10.0 °C 1019.9 hPa ENE 3.9 km/h 3.9 km/h 48 % 0.0 mm
11:00 21.0 °C 9.6 °C 1019.9 hPa ESE 3.9 km/h 3.9 km/h 48 % 0.0 mm
11:05 20.9 °C 9.8 °C 1019.9 hPa ENE 13.0 km/h 13.0 km/h 49 % 0.0 mm
11:10 21.0 °C 9.6 °C 1019.9 hPa ESE 7.4 km/h 7.4 km/h 48 % 0.0 mm
11:15 21.8 °C 10.3 °C 1018.8 hPa ENE 4.7 km/h 4.7 km/h 48 % 0.0 mm
11:20 21.0 °C 9.3 °C 1018.8 hPa ESE 9.3 km/h 9.3 km/h 47 % 0.0 mm
11:25 21.6 °C 10.1 °C 1018.8 hPa ESE 7.4 km/h 7.4 km/h 48 % 0.0 mm
11:30 22.2 °C 10.3 °C 1019.9 hPa South 5.6 km/h 5.6 km/h 47 % 0.0 mm
11:35 22.8 °C 10.9 °C 1019.9 hPa SSE 5.6 km/h 5.6 km/h 47 % 0.0 mm
11:40 22.6 °C 10.1 °C 1019.9 hPa SSE 9.3 km/h 9.3 km/h 45 % 0.0 mm
11:45 22.5 °C 10.3 °C 1019.9 hPa NE 3.7 km/h 3.7 km/h 46 % 0.0 mm
11:50 22.3 °C 9.8 °C 1019.9 hPa East 6.9 km/h 6.9 km/h 45 % 0.0 mm
11:55 22.5 °C 9.9 °C 1019.9 hPa ENE 7.4 km/h 7.4 km/h 45 % 0.0 mm
12:00 23.2 °C 10.6 °C 1019.9 hPa West 5.6 km/h 5.6 km/h 45 % 0.0 mm
12:05 23.1 °C 10.2 °C 1019.9 hPa ESE 7.4 km/h 7.4 km/h 44 % 0.0 mm
12:10 23.2 °C 10.3 °C 1019.9 hPa NNW 3.7 km/h 3.7 km/h 44 % 0.0 mm
12:15 23.7 °C 10.7 °C 1019.9 hPa ENE 3.7 km/h 3.7 km/h 44 % 0.0 mm
12:20 24.0 °C 10.3 °C 1019.9 hPa South 6.4 km/h 6.4 km/h 42 % 0.0 mm
12:25 24.0 °C 10.3 °C 1019.9 hPa SSE 9.3 km/h 9.3 km/h 42 % 0.0 mm
12:30 24.1 °C 10.7 °C 1018.8 hPa SW 7.4 km/h 7.4 km/h 43 % 0.0 mm
12:35 24.2 °C 10.5 °C 1018.8 hPa SW 7.4 km/h 7.4 km/h 42 % 0.0 mm
12:40 23.7 °C 10.0 °C 1018.8 hPa WNW 7.4 km/h 7.4 km/h 42 % 0.0 mm
12:45 24.3 °C 10.2 °C 1019.9 hPa WSW 4.7 km/h 4.7 km/h 41 % 0.0 mm
12:50 24.6 °C 10.4 °C 1019.9 hPa NW 5.6 km/h 5.6 km/h 41 % 0.0 mm
12:55 24.6 °C 10.4 °C 1019.9 hPa SSW 1.9 km/h   41 % 0.0 mm
13:00 25.7 °C 11.1 °C 1019.9 hPa SW 5.8 km/h 5.8 km/h 40 % 0.0 mm
13:05 26.1 °C 11.4 °C 1019.9 hPa South 7.4 km/h 7.4 km/h 40 % 0.0 mm
13:10 26.6 °C 11.1 °C 1019.9 hPa South 11.1 km/h 11.1 km/h 38 % 0.0 mm
13:15 26.5 °C 11.0 °C 1019.9 hPa SSE 5.6 km/h 5.6 km/h 38 % 0.0 mm
13:20 26.5 °C 11.0 °C 1019.9 hPa SSE 5.6 km/h 5.6 km/h 38 % 0.0 mm
13:25 26.5 °C 10.6 °C 1019.9 hPa East 5.3 km/h 5.3 km/h 37 % 0.0 mm
13:30 27.0 °C 10.7 °C 1018.8 hPa SSW 9.3 km/h 9.3 km/h 36 % 0.0 mm
13:35 26.0 °C 8.9 °C 1018.8 hPa SW 9.3 km/h 9.3 km/h 34 % 0.0 mm
13:40 26.3 °C 9.2 °C 1018.8 hPa ESE 9.5 km/h 9.5 km/h 34 % 0.0 mm
13:45 26.7 °C 9.9 °C 1018.8 hPa SE 5.6 km/h 5.6 km/h 35 % 0.0 mm
13:50 26.8 °C 8.7 °C 1018.8 hPa SSE 9.3 km/h 9.3 km/h 32 % 0.0 mm
13:55 26.3 °C 8.7 °C 1018.8 hPa North 9.3 km/h 9.3 km/h 33 % 0.0 mm
14:00 26.6 °C 9.0 °C 1018.8 hPa SW 9.3 km/h 9.3 km/h 33 % 0.0 mm
14:05 27.0 °C 8.9 °C 1018.8 hPa SSE 5.6 km/h 5.6 km/h 32 % 0.0 mm
14:10 27.4 °C 9.2 °C 1018.8 hPa South 7.4 km/h 7.4 km/h 32 % 0.0 mm
14:15 27.5 °C 9.3 °C 1018.8 hPa ESE 7.6 km/h 7.6 km/h 32 % 0.0 mm
14:20 27.5 °C 9.3 °C 1018.8 hPa SSW 7.4 km/h 7.4 km/h 32 % 0.0 mm
14:25 27.1 °C 9.0 °C 1018.8 hPa ESE 13.0 km/h 13.0 km/h 32 % 0.0 mm
14:30 26.2 °C 8.7 °C 1018.8 hPa ENE 9.3 km/h 9.3 km/h 33 % 0.0 mm
14:35 26.3 °C 9.6 °C 1018.8 hPa SE 11.1 km/h 11.1 km/h 35 % 0.0 mm
14:40 26.3 °C 10.8 °C 1018.8 hPa South 13.0 km/h 13.0 km/h 38 % 0.0 mm
14:45 26.2 °C 11.2 °C 1018.8 hPa ENE 24.1 km/h 24.1 km/h 39 % 0.0 mm
14:50 25.9 °C 10.9 °C 1018.8 hPa SSE 14.8 km/h 14.8 km/h 39 % 0.0 mm
14:55 26.2 °C 11.6 °C 1018.8 hPa ESE 11.1 km/h 11.1 km/h 40 % 0.0 mm
15:00 26.4 °C 11.7 °C 1018.8 hPa WSW 16.7 km/h 16.7 km/h 40 % 0.0 mm
15:05 26.0 °C 11.7 °C 1018.8 hPa SW 9.3 km/h 9.3 km/h 41 % 0.0 mm
15:10 26.5 °C 12.2 °C 1018.8 hPa SSE 13.0 km/h 13.0 km/h 41 % 0.0 mm
15:11 26.3 °C 12.0 °C 1018.8 hPa South 13.0 km/h 13.0 km/h 41 % 0.0 mm
15:16 25.7 °C 11.8 °C 1017.8 hPa East 14.0 km/h 14.0 km/h 42 % 0.0 mm
15:21 25.9 °C 12.0 °C 1017.8 hPa South 11.1 km/h 11.1 km/h 42 % 0.0 mm
15:26 25.8 °C 12.3 °C 1017.8 hPa ESE 9.3 km/h 9.3 km/h 43 % 0.0 mm
15:27 25.8 °C 12.3 °C 1017.8 hPa East 9.7 km/h 9.7 km/h 43 % 0.0 mm
15:32 25.1 °C 11.6 °C 1017.8 hPa ESE 18.5 km/h 18.5 km/h 43 % 0.0 mm
15:37 24.8 °C 11.7 °C 1017.8 hPa ESE 9.3 km/h 9.3 km/h 44 % 0.0 mm
15:42 24.6 °C 11.6 °C 1017.8 hPa SE 11.1 km/h 11.1 km/h 44 % 0.0 mm
15:47 24.6 °C 11.9 °C 1018.8 hPa ENE 22.2 km/h 22.2 km/h 45 % 0.0 mm
15:52 24.6 °C 12.2 °C 1018.8 hPa East 14.8 km/h 14.8 km/h 46 % 0.0 mm
15:57 24.6 °C 12.2 °C 1018.8 hPa ESE 13.0 km/h 13.0 km/h 46 % 0.0 mm
15:58 24.6 °C 12.2 °C 1018.8 hPa SE 9.3 km/h 9.3 km/h 46 % 0.0 mm
16:03 24.6 °C 12.2 °C 1017.8 hPa SE 12.6 km/h 12.6 km/h 46 % 0.0 mm
16:08 24.3 °C 12.3 °C 1017.8 hPa South 14.8 km/h 14.8 km/h 47 % 0.0 mm
16:13 24.4 °C 12.3 °C 1017.8 hPa ENE 5.6 km/h 5.8 km/h 47 % 0.0 mm
16:18 24.1 °C 12.1 °C 1017.8 hPa ESE 14.8 km/h 14.8 km/h 47 % 0.0 mm
16:23 23.9 °C 12.2 °C 1017.8 hPa ESE 13.0 km/h 13.0 km/h 48 % 0.0 mm
16:24 23.9 °C 12.2 °C 1017.8 hPa SE 16.7 km/h 16.7 km/h 48 % 0.0 mm
16:29 24.0 °C 12.3 °C 1017.8 hPa SSE 9.3 km/h 9.3 km/h 48 % 0.0 mm
16:34 24.0 °C 12.3 °C 1017.8 hPa South 11.1 km/h 11.1 km/h 48 % 0.0 mm
16:39 24.1 °C 12.4 °C 1017.8 hPa East 5.6 km/h 5.6 km/h 48 % 0.0 mm
16:44 24.2 °C 12.5 °C 1017.8 hPa SSE 11.1 km/h 11.1 km/h 48 % 0.0 mm
16:49 24.1 °C 12.4 °C 1017.8 hPa ESE 9.0 km/h 9.0 km/h 48 % 0.0 mm
16:54 23.9 °C 12.2 °C 1017.8 hPa SE 7.4 km/h 7.4 km/h 48 % 0.0 mm
16:59 23.9 °C 12.6 °C 1017.8 hPa ESE 11.1 km/h 11.1 km/h 49 % 0.0 mm
17:04 23.9 °C 12.6 °C 1017.8 hPa SSE 11.4 km/h 11.4 km/h 49 % 0.0 mm
17:09 23.9 °C 12.6 °C 1017.8 hPa SW 7.4 km/h 7.4 km/h 49 % 0.0 mm
17:14 23.9 °C 12.6 °C 1017.8 hPa ESE 5.6 km/h 5.6 km/h 49 % 0.0 mm
17:19 24.0 °C 12.6 °C 1017.8 hPa East 4.7 km/h 4.7 km/h 49 % 0.0 mm
17:24 24.1 °C 12.7 °C 1017.8 hPa SW 5.6 km/h 5.6 km/h 49 % 0.0 mm
17:29 24.0 °C 12.9 °C 1017.8 hPa ESE 5.6 km/h 5.8 km/h 50 % 0.0 mm
17:34 23.7 °C 12.7 °C 1017.8 hPa NE 13.0 km/h 13.0 km/h 50 % 0.0 mm
17:39 23.9 °C 12.8 °C 1017.8 hPa ESE 11.9 km/h 11.9 km/h 50 % 0.0 mm
17:44 24.0 °C 12.9 °C 1017.8 hPa SSE 9.3 km/h 9.3 km/h 50 % 0.0 mm
17:49 23.9 °C 12.8 °C 1018.8 hPa ESE 11.1 km/h 11.1 km/h 50 % 0.0 mm
17:54 23.9 °C 12.8 °C 1018.8 hPa ESE 11.1 km/h 11.1 km/h 50 % 0.0 mm
17:59 23.9 °C 12.8 °C 1017.8 hPa ESE 12.6 km/h 12.6 km/h 50 % 0.0 mm
18:04 24.0 °C 12.9 °C 1017.8 hPa ESE 13.0 km/h 13.0 km/h 50 % 0.0 mm
18:09 24.0 °C 12.9 °C 1017.8 hPa ESE 11.1 km/h 11.1 km/h 50 % 0.0 mm
18:14 23.9 °C 12.8 °C 1017.8 hPa South 9.3 km/h 9.3 km/h 50 % 0.0 mm
18:19 23.6 °C 12.6 °C 1018.8 hPa ESE 14.8 km/h 14.8 km/h 50 % 0.0 mm
18:24 23.7 °C 12.7 °C 1018.8 hPa SSE 6.1 km/h 6.4 km/h 50 % 0.0 mm
18:29 23.7 °C 12.7 °C 1018.8 hPa South 9.3 km/h 9.3 km/h 50 % 0.0 mm
18:34 23.5 °C 12.5 °C 1018.8 hPa NE 11.1 km/h 11.1 km/h 50 % 0.0 mm
18:39 23.3 °C 12.3 °C 1018.8 hPa ESE 14.8 km/h 14.8 km/h 50 % 0.0 mm
18:44 23.3 °C 12.3 °C 1017.8 hPa ESE 11.1 km/h 11.1 km/h 50 % 0.0 mm
18:49 23.4 °C 12.7 °C 1017.8 hPa East 19.0 km/h 19.0 km/h 51 % 0.0 mm
18:54 23.3 °C 12.9 °C 1017.8 hPa East 14.8 km/h 14.8 km/h 52 % 0.0 mm
18:59 23.1 °C 13.0 °C 1017.8 hPa ESE 16.4 km/h 16.4 km/h 53 % 0.0 mm
19:04 23.0 °C 13.4 °C 1018.8 hPa SE 14.8 km/h 14.8 km/h 55 % 0.0 mm
19:09 22.9 °C 13.4 °C 1018.8 hPa ESE 13.0 km/h 13.0 km/h 55 % 0.0 mm
19:14 22.8 °C 13.6 °C 1018.8 hPa ESE 14.8 km/h 14.8 km/h 56 % 0.0 mm
19:19 23.0 °C 13.4 °C 1017.8 hPa East 9.3 km/h 9.3 km/h 55 % 0.0 mm
19:20 19.8 °C 13.3 °C 1021.9 hPa NE 3.2 km/h 3.2 km/h 66 % 0.0 mm
19:24 23.0 °C 13.4 °C 1017.8 hPa SSE 5.8 km/h 5.8 km/h 55 % 0.0 mm
19:26 22.9 °C 13.4 °C 1017.8 hPa South 13.0 km/h 13.0 km/h 55 % 0.0 mm
19:30 19.7 °C 13.4 °C 1021.9 hPa NE 3.2 km/h 4.8 km/h 67 % 0.0 mm
19:31 22.8 °C 13.3 °C 1018.8 hPa SE 9.3 km/h 9.3 km/h 55 % 0.0 mm
19:36 22.8 °C 13.3 °C 1018.8 hPa ESE 10.0 km/h 10.0 km/h 55 % 0.0 mm
19:40 19.7 °C 13.4 °C 1020.9 hPa NNE 3.2 km/h 4.8 km/h 67 % 0.0 mm
19:41 22.7 °C 13.2 °C 1018.8 hPa SSE 9.3 km/h 9.3 km/h 55 % 0.0 mm
19:46 22.6 °C 13.4 °C 1018.8 hPa SSE 13.7 km/h 13.7 km/h 56 % 0.0 mm
19:50 19.6 °C 13.6 °C 1021.9 hPa NNE 3.2 km/h 4.8 km/h 68 % 0.0 mm
19:51 22.6 °C 13.4 °C 1018.8 hPa ESE 7.4 km/h 7.4 km/h 56 % 0.0 mm
19:56 22.5 °C 13.3 °C 1018.8 hPa SE 15.8 km/h 15.8 km/h 56 % 0.0 mm
20:00 19.6 °C 13.8 °C 1021.9 hPa NE 3.2 km/h 4.8 km/h 69 % 0.0 mm
20:01 22.3 °C 13.4 °C 1018.8 hPa ESE 13.0 km/h 13.0 km/h 57 % 0.0 mm
20:06 22.2 °C 13.3 °C 1018.8 hPa ESE 11.1 km/h 11.1 km/h 57 % 0.0 mm
20:10 19.6 °C 13.8 °C 1021.9 hPa NNE 1.6 km/h 3.2 km/h 69 % 0.0 mm
20:11 22.2 °C 13.3 °C 1018.8 hPa ESE 3.7 km/h 4.7 km/h 57 % 0.0 mm
20:16 22.2 °C 13.6 °C 1018.8 hPa ESE 7.4 km/h 7.4 km/h 58 % 0.0 mm
20:20 19.5 °C 13.7 °C 1021.9 hPa NNE 3.2 km/h 3.2 km/h 69 % 0.0 mm
20:21 22.1 °C 13.2 °C 1018.8 hPa ESE 11.1 km/h 11.1 km/h 57 % 0.0 mm
20:26 22.0 °C 13.1 °C 1018.8 hPa ESE 10.0 km/h 10.0 km/h 57 % 0.0 mm
20:30 19.3 °C 13.7 °C 1021.9 hPa NNE 1.6 km/h 3.2 km/h 70 % 0.0 mm
20:31 22.0 °C 13.3 °C 1018.8 hPa ESE 13.0 km/h 13.0 km/h 58 % 0.0 mm
20:36 21.9 °C 13.5 °C 1018.8 hPa ENE 7.4 km/h 7.4 km/h 59 % 0.0 mm
20:40 19.2 °C 13.6 °C 1020.9 hPa NNE 1.6 km/h 3.2 km/h 70 % 0.0 mm
20:41 21.9 °C 13.5 °C 1018.8 hPa ENE 15.8 km/h 15.8 km/h 59 % 0.0 mm
20:46 21.8 °C 13.4 °C 1018.8 hPa ESE 14.8 km/h 14.8 km/h 59 % 0.0 mm
20:50 19.1 °C 13.7 °C 1020.9 hPa Calm   1.6 km/h 71 % 0.0 mm
20:51 21.7 °C 13.3 °C 1018.8 hPa East 11.1 km/h 11.1 km/h 59 % 0.0 mm
20:56 21.7 °C 13.3 °C 1018.8 hPa ESE 9.3 km/h 9.3 km/h 59 % 0.0 mm
21:00 19.0 °C 13.6 °C 1020.9 hPa Calm   1.6 km/h 71 % 0.0 mm
21:01 21.7 °C 13.3 °C 1019.9 hPa ESE 11.4 km/h 11.4 km/h 59 % 0.0 mm
21:06 21.6 °C 13.5 °C 1019.9 hPa ESE 9.3 km/h 9.3 km/h 60 % 0.0 mm
21:10 18.8 °C 13.7 °C 1020.9 hPa Calm   1.6 km/h 72 % 0.0 mm
21:11 21.5 °C 13.4 °C 1019.9 hPa ESE 9.3 km/h 9.3 km/h 60 % 0.0 mm
21:16 21.5 °C 13.4 °C 1019.9 hPa NE 11.1 km/h 11.1 km/h 60 % 0.0 mm
21:20 18.8 °C 13.8 °C 1020.9 hPa Calm     73 % 0.0 mm
21:21 21.6 °C 13.5 °C 1019.9 hPa East 5.8 km/h 5.8 km/h 60 % 0.0 mm
21:26 21.5 °C 13.7 °C 1019.9 hPa SE 9.7 km/h 9.7 km/h 61 % 0.0 mm
21:30 18.8 °C 13.8 °C 1020.9 hPa NNE 3.2 km/h 3.2 km/h 73 % 0.0 mm
21:31 21.5 °C 13.7 °C 1018.8 hPa ESE 5.8 km/h 5.8 km/h 61 % 0.0 mm
21:36 21.5 °C 13.7 °C 1018.8 hPa SE 6.1 km/h 6.1 km/h 61 % 0.0 mm
21:40 18.8 °C 13.8 °C 1020.9 hPa NNE 3.2 km/h 4.8 km/h 73 % 0.0 mm
21:41 21.5 °C 13.7 °C 1018.8 hPa SE 5.6 km/h 5.6 km/h 61 % 0.0 mm
21:46 21.4 °C 13.6 °C 1019.9 hPa ESE 9.3 km/h 9.3 km/h 61 % 0.0 mm
21:50 18.7 °C 13.8 °C 1019.9 hPa NNE 3.2 km/h 3.2 km/h 73 % 0.0 mm
21:51 21.4 °C 13.6 °C 1019.9 hPa ENE 5.6 km/h 5.6 km/h 61 % 0.0 mm
21:56 21.4 °C 13.6 °C 1019.9 hPa ESE 11.1 km/h 11.1 km/h 61 % 0.0 mm
22:00 18.6 °C 13.7 °C 1019.9 hPa NNE 1.6 km/h 3.2 km/h 73 % 0.0 mm
22:01 21.3 °C 13.4 °C 1019.9 hPa NE 9.3 km/h 9.3 km/h 61 % 0.0 mm
22:06 21.2 °C 13.4 °C 1019.9 hPa ESE 7.4 km/h 7.4 km/h 61 % 0.0 mm
22:10 18.6 °C 13.7 °C 1020.9 hPa Calm   3.2 km/h 73 % 0.0 mm
22:11 21.2 °C 13.4 °C 1019.9 hPa East 9.3 km/h 9.3 km/h 61 % 0.0 mm
22:16 21.2 °C 13.6 °C 1019.9 hPa East 5.3 km/h 5.3 km/h 62 % 0.0 mm
22:20 18.4 °C 13.7 °C 1020.9 hPa Calm     74 % 0.0 mm
22:21 21.1 °C 13.6 °C 1019.9 hPa ESE 5.6 km/h 5.6 km/h 62 % 0.0 mm
22:26 21.1 °C 13.6 °C 1019.9 hPa ESE 6.1 km/h 6.1 km/h 62 % 0.0 mm
22:30 18.3 °C 13.6 °C 1020.9 hPa Calm     74 % 0.0 mm
22:31 21.0 °C 13.4 °C 1019.9 hPa ENE 4.7 km/h 4.7 km/h 62 % 0.0 mm
22:36 21.0 °C 13.4 °C 1019.9 hPa ESE 7.4 km/h 7.4 km/h 62 % 0.0 mm
22:38 21.0 °C 13.4 °C 1019.9 hPa SE 5.6 km/h 5.6 km/h 62 % 0.0 mm
22:40 18.4 °C 13.9 °C 1020.9 hPa Calm   3.2 km/h 75 % 0.0 mm
22:43 20.9 °C 13.3 °C 1019.9 hPa ESE 5.6 km/h 5.6 km/h 62 % 0.0 mm
22:48 20.8 °C 13.3 °C 1019.9 hPa ENE 3.7 km/h 3.7 km/h 62 % 0.0 mm
22:50 18.4 °C 13.9 °C 1020.9 hPa Calm   3.2 km/h 75 % 0.0 mm
22:53 20.7 °C 13.2 °C 1019.9 hPa NE 3.7 km/h 3.7 km/h 62 % 0.0 mm
22:58 20.6 °C 12.8 °C 1019.9 hPa ENE 7.4 km/h 7.4 km/h 61 % 0.0 mm
23:00 18.4 °C 13.9 °C 1020.9 hPa NNE 1.6 km/h 1.6 km/h 75 % 0.0 mm
23:03 20.5 °C 12.7 °C 1020.9 hPa ENE 1.9 km/h 1.9 km/h 61 % 0.0 mm
23:08 20.5 °C 12.9 °C 1020.9 hPa NE 3.7 km/h 3.7 km/h 62 % 0.0 mm
23:10 18.3 °C 13.8 °C 1019.9 hPa NNE 1.6 km/h 3.2 km/h 75 % 0.0 mm
23:13 20.4 °C 13.1 °C 1020.9 hPa ENE 3.7 km/h 3.7 km/h 63 % 0.0 mm
23:18 20.4 °C 13.1 °C 1020.9 hPa East 5.6 km/h 5.6 km/h 63 % 0.0 mm
23:20 18.3 °C 13.8 °C 1019.9 hPa NNE 1.6 km/h 3.2 km/h 75 % 0.0 mm
23:23 20.2 °C 12.9 °C 1020.9 hPa ENE 3.7 km/h 3.7 km/h 63 % 0.0 mm
23:28 20.2 °C 12.9 °C 1020.9 hPa ENE 3.7 km/h 3.7 km/h 63 % 0.0 mm
23:30 18.1 °C 13.6 °C 1019.9 hPa NNE 1.6 km/h 3.2 km/h 75 % 0.0 mm
23:33 20.1 °C 12.8 °C 1020.9 hPa NE 3.7 km/h 3.7 km/h 63 % 0.0 mm
23:38 20.1 °C 12.8 °C 1020.9 hPa ENE 3.7 km/h 3.7 km/h 63 % 0.0 mm
23:40 18.0 °C 13.7 °C 1019.9 hPa NNE 1.6 km/h 3.2 km/h 76 % 0.0 mm
23:43 20.1 °C 12.8 °C 1020.9 hPa NE 4.7 km/h 4.7 km/h 63 % 0.0 mm
23:48 20.0 °C 12.7 °C 1020.9 hPa NNE 3.9 km/h 3.9 km/h 63 % 0.0 mm
23:50 17.9 °C 13.6 °C 1019.9 hPa Calm   1.6 km/h 76 % 0.0 mm
23:53 20.1 °C 12.8 °C 1020.9 hPa ENE 3.9 km/h 3.9 km/h 63 % 0.0 mm
23:58 20.1 °C 12.8 °C 1020.9 hPa NNE 3.9 km/h 3.9 km/h 63 % 0.0 mm
Meteo Sesrovires
Elogis d' Weather Underground - 3.75 mb

Guio original per  Jim McMurry - jmcmurry@mwt.net Adaptat per a la plantilla per  Wim van der Kuil - Leuven-Template.eu

Trobareu la nostra informacio del temps tambe a:

Weather Underground

AWEKAS